createdAt,value
2022-09-30T00:01:50.106Z,10.70
2022-09-30T00:04:22.991Z,10.60
2022-09-30T00:06:51.838Z,10.50
2022-09-30T00:09:21.745Z,10.50
2022-09-30T00:11:50.852Z,10.50
2022-09-30T00:14:21.453Z,10.50
2022-09-30T00:16:52.141Z,10.60
2022-09-30T00:19:20.584Z,10.60
2022-09-30T00:21:51.968Z,10.60
2022-09-30T00:24:20.561Z,10.50
2022-09-30T00:26:49.131Z,10.40
2022-09-30T00:29:17.337Z,10.40
2022-09-30T00:31:45.773Z,10.30
2022-09-30T00:34:15.261Z,10.30
2022-09-30T00:36:45.313Z,10.30
2022-09-30T00:39:16.177Z,10.20
2022-09-30T00:41:45.235Z,10.20
2022-09-30T00:44:48.010Z,10.10
2022-09-30T00:47:42.994Z,10.10
2022-09-30T00:50:21.737Z,10.10
2022-09-30T00:52:53.527Z,10.10
2022-09-30T00:55:35.748Z,10.20
2022-09-30T00:58:06.709Z,10.10
2022-09-30T01:00:35.625Z,10.10
2022-09-30T01:03:05.032Z,10.10
2022-09-30T01:05:35.972Z,10.10
2022-09-30T01:08:06.268Z,10.10
2022-09-30T01:10:34.660Z,10.00
2022-09-30T01:13:02.920Z,10.10
2022-09-30T01:15:48.588Z,10.10
2022-09-30T01:18:27.224Z,10.10
2022-09-30T01:21:37.804Z,10.00
2022-09-30T01:24:30.322Z,10.10
2022-09-30T01:27:31.481Z,10.00
2022-09-30T01:30:12.494Z,9.90
2022-09-30T01:33:05.152Z,9.90
2022-09-30T01:35:48.903Z,9.90
2022-09-30T01:38:29.374Z,9.80
2022-09-30T01:41:06.139Z,9.70
2022-09-30T01:43:44.718Z,9.70
2022-09-30T01:46:22.956Z,9.70
2022-09-30T01:49:01.010Z,9.70
2022-09-30T01:51:36.435Z,9.70
2022-09-30T01:54:07.472Z,9.70
2022-09-30T01:56:43.008Z,9.70
2022-09-30T01:59:16.732Z,9.60
2022-09-30T02:01:50.764Z,9.60
2022-09-30T02:04:25.088Z,9.60
2022-09-30T02:06:59.690Z,9.60
2022-09-30T02:09:31.285Z,9.50
2022-09-30T02:12:04.784Z,9.60
2022-09-30T02:14:38.077Z,9.50
2022-09-30T02:17:11.066Z,9.50
2022-09-30T02:19:42.609Z,9.50
2022-09-30T02:22:16.334Z,9.60
2022-09-30T02:24:46.829Z,9.50
2022-09-30T02:27:21.698Z,9.40
2022-09-30T02:29:54.539Z,9.30
2022-09-30T02:32:26.149Z,9.30
2022-09-30T02:35:01.209Z,9.30
2022-09-30T02:37:33.175Z,9.30
2022-09-30T02:40:07.218Z,9.30
2022-09-30T02:42:35.827Z,9.40
2022-09-30T02:45:08.678Z,9.40
2022-09-30T02:47:49.658Z,9.40
2022-09-30T02:50:27.240Z,9.40
2022-09-30T02:53:05.228Z,9.30
2022-09-30T02:55:38.740Z,9.40
2022-09-30T02:58:13.089Z,9.30
2022-09-30T03:00:41.944Z,9.40
2022-09-30T03:03:18.240Z,9.30
2022-09-30T03:05:50.046Z,9.30
2022-09-30T03:08:18.798Z,9.30
2022-09-30T03:10:50.805Z,9.30
2022-09-30T03:13:36.523Z,9.30
2022-09-30T03:16:16.806Z,9.20
2022-09-30T03:18:58.343Z,9.10
2022-09-30T03:21:46.321Z,9.20
2022-09-30T03:24:37.143Z,9.20
2022-09-30T03:27:14.725Z,9.10
2022-09-30T03:29:50.957Z,9.00
2022-09-30T03:32:31.913Z,9.10
2022-09-30T03:35:07.203Z,9.10
2022-09-30T03:37:47.753Z,9.10
2022-09-30T03:40:24.786Z,9.10
2022-09-30T03:42:57.089Z,9.10
2022-09-30T03:45:31.645Z,9.20
2022-09-30T03:48:04.807Z,9.30
2022-09-30T03:50:34.702Z,9.30
2022-09-30T03:53:04.574Z,9.30
2022-09-30T03:55:33.817Z,9.30
2022-09-30T03:58:02.231Z,9.30
2022-09-30T04:00:32.568Z,9.30
2022-09-30T04:03:00.835Z,9.30
2022-09-30T04:05:29.110Z,9.40
2022-09-30T04:07:57.533Z,9.30
2022-09-30T04:10:27.143Z,9.30
2022-09-30T04:12:55.321Z,9.30
2022-09-30T04:15:23.413Z,9.30
2022-09-30T04:17:51.945Z,9.40
2022-09-30T04:20:22.246Z,9.40
2022-09-30T04:22:50.431Z,9.40
2022-09-30T04:25:18.805Z,9.50
2022-09-30T04:27:48.664Z,9.40
2022-09-30T04:30:20.226Z,9.40
2022-09-30T04:32:50.763Z,9.40
2022-09-30T04:35:18.992Z,9.50
2022-09-30T04:37:48.049Z,9.40
2022-09-30T04:40:17.758Z,9.30
2022-09-30T04:42:47.698Z,9.40
2022-09-30T04:45:16.433Z,9.40
2022-09-30T04:47:46.173Z,9.30
2022-09-30T04:50:14.478Z,9.30
2022-09-30T04:52:44.357Z,9.30
2022-09-30T04:55:13.082Z,9.30
2022-09-30T04:57:45.298Z,9.30
2022-09-30T05:00:15.197Z,9.30
2022-09-30T05:02:45.173Z,9.30
2022-09-30T05:05:13.388Z,9.30
2022-09-30T05:07:42.121Z,9.30
2022-09-30T05:10:11.258Z,9.30
2022-09-30T05:12:40.991Z,9.40
2022-09-30T05:15:10.220Z,9.50
2022-09-30T05:17:39.698Z,9.50
2022-09-30T05:20:10.956Z,9.50
2022-09-30T05:22:39.405Z,9.50
2022-09-30T05:25:08.543Z,9.50
2022-09-30T05:27:36.971Z,9.60
2022-09-30T05:30:06.763Z,9.60
2022-09-30T05:32:35.105Z,9.70
2022-09-30T05:35:05.465Z,9.70
2022-09-30T05:37:35.509Z,9.80
2022-09-30T05:40:04.047Z,9.90
2022-09-30T05:42:37.112Z,9.90
2022-09-30T05:45:06.621Z,10.00
2022-09-30T05:47:35.726Z,10.10
2022-09-30T05:50:05.724Z,10.10
2022-09-30T05:52:33.964Z,10.10
2022-09-30T05:55:02.177Z,10.10
2022-09-30T05:57:30.535Z,10.10
2022-09-30T05:59:59.446Z,10.10
2022-09-30T06:02:27.872Z,10.10
2022-09-30T06:04:56.097Z,10.10
2022-09-30T06:07:28.451Z,10.10
2022-09-30T06:09:56.648Z,10.20
2022-09-30T06:12:27.426Z,10.20
2022-09-30T06:14:55.888Z,10.20
2022-09-30T06:17:24.434Z,10.20
2022-09-30T06:19:52.769Z,10.10
2022-09-30T06:22:21.184Z,10.20
2022-09-30T06:24:54.980Z,10.20
2022-09-30T06:27:25.062Z,10.20
2022-09-30T06:29:53.257Z,10.20
2022-09-30T06:32:21.811Z,10.30
2022-09-30T06:34:50.007Z,10.30
2022-09-30T06:37:18.600Z,10.40
2022-09-30T06:39:46.780Z,10.40
2022-09-30T06:42:16.262Z,10.30
2022-09-30T06:44:52.864Z,10.40
2022-09-30T06:47:25.508Z,10.50
2022-09-30T06:49:58.579Z,10.50
2022-09-30T06:52:29.148Z,10.50
2022-09-30T06:54:57.537Z,10.40
2022-09-30T06:57:28.002Z,10.40
2022-09-30T06:59:56.776Z,10.40
2022-09-30T07:02:25.238Z,10.50
2022-09-30T07:04:53.536Z,10.50
2022-09-30T07:07:22.465Z,10.50
2022-09-30T07:09:50.895Z,10.50
2022-09-30T07:12:19.216Z,10.50
2022-09-30T07:14:48.767Z,10.50
2022-09-30T07:17:17.024Z,10.50
2022-09-30T07:19:45.350Z,10.60
2022-09-30T07:22:29.840Z,10.70
2022-09-30T07:24:58.796Z,10.70
2022-09-30T07:27:27.569Z,10.80
2022-09-30T07:30:09.263Z,10.90
2022-09-30T07:32:39.536Z,10.90
2022-09-30T07:35:08.397Z,11.10
2022-09-30T07:37:37.063Z,11.10
2022-09-30T07:40:06.655Z,11.30
2022-09-30T07:42:37.895Z,11.40
2022-09-30T07:45:08.462Z,11.30
2022-09-30T07:47:36.963Z,11.40
2022-09-30T07:50:05.511Z,11.60
2022-09-30T07:52:33.867Z,12.10
2022-09-30T07:55:02.197Z,11.80
2022-09-30T07:57:30.433Z,12.00
2022-09-30T08:00:04.876Z,11.90
2022-09-30T08:02:41.484Z,11.90
2022-09-30T08:05:09.946Z,11.80
2022-09-30T08:07:41.073Z,12.00
2022-09-30T08:10:10.128Z,12.00
2022-09-30T08:12:38.859Z,12.00
2022-09-30T08:15:09.704Z,12.10
2022-09-30T08:17:38.220Z,12.20
2022-09-30T08:20:13.241Z,12.40
2022-09-30T08:22:42.744Z,12.40
2022-09-30T08:25:11.172Z,12.40
2022-09-30T08:27:39.782Z,12.50
2022-09-30T08:30:09.238Z,12.50
2022-09-30T08:32:37.475Z,12.60
2022-09-30T08:35:07.740Z,12.90
2022-09-30T08:37:36.010Z,13.20
2022-09-30T08:40:04.795Z,13.30
2022-09-30T08:43:01.123Z,13.70
2022-09-30T08:45:37.312Z,13.80
2022-09-30T08:48:17.710Z,13.90
2022-09-30T08:50:54.720Z,14.40
2022-09-30T08:53:27.107Z,14.10
2022-09-30T08:55:58.155Z,14.20
2022-09-30T08:58:29.882Z,14.50
2022-09-30T09:01:02.210Z,15.00
2022-09-30T09:03:34.015Z,15.10
2022-09-30T09:06:13.729Z,15.50
2022-09-30T09:08:59.016Z,15.60
2022-09-30T09:11:43.332Z,15.30
2022-09-30T09:14:25.598Z,15.70
2022-09-30T09:17:10.676Z,15.60
2022-09-30T09:19:47.134Z,15.70
2022-09-30T09:22:18.263Z,15.60
2022-09-30T09:24:53.482Z,15.90
2022-09-30T09:27:26.745Z,15.90
2022-09-30T09:30:05.759Z,15.50
2022-09-30T09:32:34.636Z,15.40
2022-09-30T09:35:08.186Z,15.30
2022-09-30T09:38:03.291Z,15.70
2022-09-30T09:40:40.777Z,15.90
2022-09-30T09:43:19.792Z,16.40
2022-09-30T09:45:56.486Z,16.20
2022-09-30T09:48:24.881Z,16.30
2022-09-30T09:51:02.160Z,16.60
2022-09-30T09:53:48.243Z,16.70
2022-09-30T09:56:21.774Z,16.60
2022-09-30T09:59:11.246Z,16.20
2022-09-30T10:01:41.316Z,16.50
2022-09-30T10:04:12.154Z,16.50
2022-09-30T10:06:52.013Z,16.80
2022-09-30T10:09:28.044Z,17.10
2022-09-30T10:12:27.046Z,17.10
2022-09-30T10:15:01.315Z,16.80
2022-09-30T10:17:31.838Z,17.00
2022-09-30T10:20:03.977Z,17.20
2022-09-30T10:22:33.616Z,17.20
2022-09-30T10:25:23.614Z,17.10
2022-09-30T10:27:55.766Z,17.10
2022-09-30T10:30:44.093Z,17.30
2022-09-30T10:33:20.298Z,17.70
2022-09-30T10:35:58.240Z,18.00
2022-09-30T10:38:29.485Z,17.60
2022-09-30T10:41:00.111Z,17.30
2022-09-30T10:43:32.765Z,17.50
2022-09-30T10:48:55.009Z,17.30
2022-09-30T10:51:27.994Z,17.50
2022-09-30T10:53:57.149Z,17.60
2022-09-30T10:56:47.147Z,17.50
2022-09-30T10:59:35.652Z,17.70
2022-09-30T11:02:28.760Z,17.60
2022-09-30T11:05:04.388Z,17.80
2022-09-30T11:07:39.880Z,17.80
2022-09-30T11:10:26.505Z,17.60
2022-09-30T11:13:02.937Z,17.50
2022-09-30T11:15:34.862Z,17.60
2022-09-30T11:18:06.855Z,17.80
2022-09-30T11:20:40.761Z,17.50
2022-09-30T11:23:20.180Z,17.80
2022-09-30T11:26:03.812Z,18.00
2022-09-30T11:28:58.430Z,17.90
2022-09-30T11:31:32.077Z,17.90
2022-09-30T11:34:23.800Z,17.90
2022-09-30T11:37:03.026Z,18.10
2022-09-30T11:39:53.872Z,18.00
2022-09-30T11:42:30.210Z,18.20
2022-09-30T11:45:09.048Z,18.30
2022-09-30T11:47:53.615Z,18.20
2022-09-30T11:50:36.606Z,18.30
2022-09-30T11:53:16.690Z,18.30
2022-09-30T11:55:58.914Z,18.30
2022-09-30T11:58:40.948Z,18.20
2022-09-30T12:01:18.270Z,18.30
2022-09-30T12:03:54.953Z,18.30
2022-09-30T12:06:28.982Z,18.20
2022-09-30T12:09:03.872Z,18.30
2022-09-30T12:11:38.992Z,18.30
2022-09-30T12:14:15.990Z,18.40
2022-09-30T12:16:49.035Z,18.40
2022-09-30T12:19:25.292Z,18.40
2022-09-30T12:21:59.845Z,18.40
2022-09-30T12:24:33.690Z,18.50
2022-09-30T12:27:02.959Z,18.50
2022-09-30T12:29:53.999Z,18.50
2022-09-30T12:33:01.261Z,18.50
2022-09-30T12:35:53.322Z,18.40
2022-09-30T12:38:36.046Z,18.60
2022-09-30T12:41:23.242Z,18.50
2022-09-30T12:44:17.652Z,18.50
2022-09-30T12:47:12.031Z,18.50
2022-09-30T12:49:43.472Z,18.60
2022-09-30T12:52:15.831Z,18.60
2022-09-30T12:54:48.766Z,18.60
2022-09-30T12:57:22.154Z,18.70
2022-09-30T12:59:55.706Z,18.70
2022-09-30T13:02:31.818Z,18.70
2022-09-30T13:05:33.471Z,18.60
2022-09-30T13:08:25.865Z,18.60
2022-09-30T13:11:00.394Z,18.50
2022-09-30T13:13:32.234Z,18.60
2022-09-30T13:16:04.487Z,18.60
2022-09-30T13:19:03.482Z,18.70
2022-09-30T13:21:32.381Z,18.70
2022-09-30T13:24:03.542Z,18.70
2022-09-30T13:26:46.357Z,18.70
2022-09-30T13:29:39.300Z,18.70
2022-09-30T13:32:11.592Z,18.70
2022-09-30T13:34:57.917Z,18.60
2022-09-30T13:37:35.921Z,18.70
2022-09-30T13:40:16.659Z,18.80
2022-09-30T13:42:52.467Z,18.70
2022-09-30T13:45:27.143Z,18.80
2022-09-30T13:48:07.299Z,18.60
2022-09-30T13:50:38.932Z,18.60
2022-09-30T13:53:13.387Z,18.60
2022-09-30T13:55:46.176Z,18.60
2022-09-30T13:58:55.273Z,18.60
2022-09-30T14:01:37.583Z,18.70
2022-09-30T14:04:29.546Z,18.60
2022-09-30T14:07:10.503Z,18.70
2022-09-30T14:09:54.887Z,18.70
2022-09-30T14:12:38.629Z,18.70
2022-09-30T14:15:24.116Z,18.80
2022-09-30T14:18:25.882Z,18.80
2022-09-30T14:21:06.546Z,18.90
2022-09-30T14:23:34.789Z,18.90
2022-09-30T14:26:16.660Z,18.80
2022-09-30T14:28:50.599Z,18.80
2022-09-30T14:31:20.248Z,18.80
2022-09-30T14:33:52.066Z,18.90
2022-09-30T14:36:23.364Z,18.70
2022-09-30T14:38:55.514Z,18.70
2022-09-30T14:41:25.376Z,18.70
2022-09-30T14:43:58.842Z,18.80
2022-09-30T14:46:32.188Z,18.80
2022-09-30T14:49:04.570Z,18.90
2022-09-30T14:51:43.312Z,18.90
2022-09-30T14:54:19.265Z,19.00
2022-09-30T14:56:48.327Z,18.80
2022-09-30T14:59:24.816Z,18.90
2022-09-30T15:01:56.079Z,18.90
2022-09-30T15:04:28.798Z,18.90
2022-09-30T15:06:57.874Z,19.10
2022-09-30T15:09:30.918Z,19.20
2022-09-30T15:12:04.836Z,19.20
2022-09-30T15:14:34.234Z,19.00
2022-09-30T15:17:06.004Z,19.20
2022-09-30T15:19:36.148Z,19.10
2022-09-30T15:22:09.411Z,19.20
2022-09-30T15:24:38.510Z,19.10
2022-09-30T15:27:13.623Z,19.00
2022-09-30T15:29:57.533Z,18.90
2022-09-30T15:32:27.532Z,19.10
2022-09-30T15:34:58.651Z,19.10
2022-09-30T15:37:33.336Z,19.20
2022-09-30T15:40:20.177Z,19.10
2022-09-30T15:42:56.045Z,19.10
2022-09-30T15:45:35.519Z,19.10
2022-09-30T15:48:07.539Z,19.10
2022-09-30T15:50:40.659Z,19.10
2022-09-30T15:53:20.037Z,19.00
2022-09-30T15:55:52.364Z,19.00
2022-09-30T15:58:37.625Z,19.00
2022-09-30T16:01:21.603Z,19.00
2022-09-30T16:03:54.280Z,19.00
2022-09-30T16:06:26.407Z,19.00
2022-09-30T16:09:01.164Z,19.00
2022-09-30T16:11:32.612Z,18.90
2022-09-30T16:14:03.124Z,18.90
2022-09-30T16:16:35.624Z,19.10
2022-09-30T16:19:05.300Z,19.00
2022-09-30T16:21:45.075Z,19.10
2022-09-30T16:24:47.595Z,19.00
2022-09-30T16:27:32.831Z,18.90
2022-09-30T16:30:01.846Z,19.10
2022-09-30T16:32:34.085Z,19.00
2022-09-30T16:35:03.805Z,19.00
2022-09-30T16:37:32.104Z,19.10
2022-09-30T16:40:10.439Z,19.10
2022-09-30T16:42:38.667Z,19.00
2022-09-30T16:45:07.939Z,19.00
2022-09-30T16:47:37.393Z,18.80
2022-09-30T16:50:24.435Z,18.70
2022-09-30T16:52:52.815Z,18.70
2022-09-30T16:55:21.053Z,18.80
2022-09-30T16:57:50.339Z,18.60
2022-09-30T17:00:19.485Z,18.40
2022-09-30T17:02:50.228Z,18.90
2022-09-30T17:05:20.225Z,18.40
2022-09-30T17:07:51.081Z,18.50
2022-09-30T17:10:23.043Z,18.50
2022-09-30T17:12:51.913Z,18.80
2022-09-30T17:15:20.782Z,18.50
2022-09-30T17:17:52.844Z,17.60
2022-09-30T17:20:21.620Z,17.00
2022-09-30T17:22:49.916Z,16.80
2022-09-30T17:25:19.066Z,16.50
2022-09-30T17:27:49.915Z,16.50
2022-09-30T17:30:18.777Z,16.40
2022-09-30T17:32:47.438Z,16.50
2022-09-30T17:35:17.352Z,16.40
2022-09-30T17:37:47.664Z,16.30
2022-09-30T17:40:33.921Z,16.30
2022-09-30T17:43:08.620Z,16.30
2022-09-30T17:45:44.180Z,16.30
2022-09-30T17:48:13.359Z,16.40
2022-09-30T17:50:46.001Z,16.20
2022-09-30T17:53:16.923Z,16.10
2022-09-30T17:55:47.157Z,16.10
2022-09-30T17:58:16.648Z,16.10
2022-09-30T18:00:45.226Z,16.00
2022-09-30T18:03:14.045Z,16.20
2022-09-30T18:05:45.572Z,16.20
2022-09-30T18:08:14.493Z,16.20
2022-09-30T18:10:42.808Z,16.10
2022-09-30T18:13:11.533Z,15.90
2022-09-30T18:15:40.411Z,15.90
2022-09-30T18:18:09.039Z,15.90
2022-09-30T18:20:37.230Z,16.90
2022-09-30T18:23:06.679Z,17.40
2022-09-30T18:25:35.175Z,17.70
2022-09-30T18:28:03.815Z,17.80
2022-09-30T18:30:32.154Z,17.80
2022-09-30T18:33:00.373Z,17.90
2022-09-30T18:35:30.209Z,17.90
2022-09-30T18:37:58.402Z,18.00
2022-09-30T18:40:29.573Z,17.90
2022-09-30T18:43:00.129Z,18.20
2022-09-30T18:45:29.793Z,18.10
2022-09-30T18:47:59.333Z,17.90
2022-09-30T18:50:29.376Z,17.90
2022-09-30T18:52:57.809Z,18.00
2022-09-30T18:55:28.007Z,17.80
2022-09-30T18:57:57.287Z,18.20
2022-09-30T19:00:27.037Z,17.40
2022-09-30T19:02:55.391Z,17.60
2022-09-30T19:05:23.682Z,17.80
2022-09-30T19:07:53.363Z,17.70
2022-09-30T19:10:21.564Z,17.50
2022-09-30T19:12:52.170Z,17.60
2022-09-30T19:15:20.889Z,17.70
2022-09-30T19:17:50.707Z,18.00
2022-09-30T19:20:19.044Z,17.70
2022-09-30T19:22:51.320Z,17.90
2022-09-30T19:25:19.693Z,17.60
2022-09-30T19:27:49.497Z,17.70
2022-09-30T19:30:19.676Z,18.10
2022-09-30T19:32:48.810Z,18.10
2022-09-30T19:35:18.899Z,17.70
2022-09-30T19:37:58.466Z,17.50
2022-09-30T19:43:06.934Z,17.30
2022-09-30T19:45:36.691Z,16.90
2022-09-30T19:48:05.250Z,17.00
2022-09-30T19:50:36.757Z,17.50
2022-09-30T19:53:05.062Z,17.50
2022-09-30T19:55:44.603Z,17.70
2022-09-30T19:58:17.616Z,17.60
2022-09-30T20:00:54.519Z,17.70
2022-09-30T20:03:24.324Z,17.30
2022-09-30T20:05:58.803Z,17.70
2022-09-30T20:08:27.186Z,17.40
2022-09-30T20:10:55.838Z,17.60
2022-09-30T20:13:25.442Z,17.40
2022-09-30T20:15:54.583Z,17.10
2022-09-30T20:18:24.045Z,17.20
2022-09-30T20:20:53.426Z,17.00
2022-09-30T20:23:22.868Z,17.00
2022-09-30T20:25:52.879Z,16.80
2022-09-30T20:28:21.527Z,17.10
2022-09-30T20:30:50.039Z,17.20
2022-09-30T20:33:20.934Z,16.80
2022-09-30T20:35:49.494Z,17.50
2022-09-30T20:38:20.013Z,17.20
2022-09-30T20:40:48.237Z,17.30
2022-09-30T20:43:16.682Z,17.30
2022-09-30T20:45:45.537Z,17.20
2022-09-30T20:48:13.726Z,17.20
2022-09-30T20:50:45.241Z,16.90
2022-09-30T20:53:14.259Z,17.30
2022-09-30T20:55:44.372Z,17.20
2022-09-30T20:58:13.536Z,16.90
2022-09-30T21:00:43.210Z,17.10
2022-09-30T21:03:13.233Z,17.30
2022-09-30T21:05:51.736Z,16.80
2022-09-30T21:08:20.241Z,16.80
2022-09-30T21:10:48.447Z,17.20
2022-09-30T21:13:16.918Z,17.10
2022-09-30T21:15:45.360Z,16.90
2022-09-30T21:18:14.046Z,16.60
2022-09-30T21:20:43.501Z,16.70
2022-09-30T21:23:14.266Z,17.30
2022-09-30T21:25:45.505Z,17.20
2022-09-30T21:28:13.801Z,17.20
2022-09-30T21:30:42.648Z,17.10
2022-09-30T21:33:11.004Z,17.10
2022-09-30T21:35:39.436Z,16.60
2022-09-30T21:38:08.965Z,17.10
2022-09-30T21:40:37.208Z,16.60
2022-09-30T21:43:05.689Z,17.00
2022-09-30T21:45:34.072Z,17.30
2022-09-30T21:48:03.048Z,17.30
2022-09-30T21:50:32.801Z,17.50
2022-09-30T21:53:01.127Z,17.60
2022-09-30T21:55:31.154Z,17.60
2022-09-30T21:57:59.456Z,17.50
2022-09-30T22:00:28.097Z,17.30
2022-09-30T22:02:56.499Z,17.50
2022-09-30T22:05:24.789Z,17.50
2022-09-30T22:07:53.319Z,17.90
2022-09-30T22:10:21.620Z,17.60
2022-09-30T22:12:51.209Z,17.20
2022-09-30T22:15:19.632Z,17.60
2022-09-30T22:17:48.231Z,17.60
2022-09-30T22:20:16.578Z,17.50
2022-09-30T22:22:44.799Z,17.20
2022-09-30T22:25:12.917Z,17.20
2022-09-30T22:27:41.531Z,17.50
2022-09-30T22:30:11.823Z,17.50
2022-09-30T22:32:39.911Z,17.60
2022-09-30T22:35:26.650Z,17.80
2022-09-30T22:38:12.395Z,17.80
2022-09-30T22:40:40.525Z,17.20
2022-09-30T22:43:09.098Z,17.00
2022-09-30T22:45:38.594Z,17.00
2022-09-30T22:48:06.778Z,17.50
2022-09-30T22:50:36.828Z,17.40
2022-09-30T22:53:04.988Z,17.30
2022-09-30T22:55:33.479Z,17.20
2022-09-30T22:58:01.711Z,17.30
2022-09-30T23:00:31.475Z,17.60
2022-09-30T23:03:01.123Z,17.00
2022-09-30T23:05:29.788Z,17.20
2022-09-30T23:07:58.258Z,17.60
2022-09-30T23:10:26.505Z,17.90
2022-09-30T23:12:54.739Z,17.40
2022-09-30T23:15:23.027Z,17.60
2022-09-30T23:17:51.180Z,17.50
2022-09-30T23:20:21.623Z,17.60
2022-09-30T23:22:49.945Z,17.50
2022-09-30T23:25:18.196Z,17.50
2022-09-30T23:27:49.143Z,17.90
2022-09-30T23:30:17.816Z,17.10
2022-09-30T23:32:46.085Z,17.70
2022-09-30T23:35:14.279Z,17.10
2022-09-30T23:37:43.706Z,16.80
2022-09-30T23:40:12.123Z,17.00
2022-09-30T23:42:40.334Z,17.20
2022-09-30T23:45:09.528Z,17.50
2022-09-30T23:47:38.100Z,17.30
2022-09-30T23:50:06.864Z,17.40
2022-09-30T23:52:35.651Z,17.50
2022-09-30T23:55:05.436Z,17.50
2022-09-30T23:57:33.606Z,17.50
